sensor_id;sensor_type;location;lat;lon;timestamp;P1;durP1;ratioP1;P2;durP2;ratioP2
47167;SDS011;32931;47.778;17.806;2023-04-06T00:02:16;15.18;;;6.82;;
47167;SDS011;32931;47.778;17.806;2023-04-06T00:04:42;14.60;;;6.80;;
47167;SDS011;32931;47.778;17.806;2023-04-06T00:07:09;15.30;;;6.90;;
47167;SDS011;32931;47.778;17.806;2023-04-06T00:09:35;14.82;;;7.00;;
47167;SDS011;32931;47.778;17.806;2023-04-06T00:12:02;17.83;;;7.38;;
47167;SDS011;32931;47.778;17.806;2023-04-06T00:14:28;17.25;;;7.15;;
47167;SDS011;32931;47.778;17.806;2023-04-06T00:16:55;16.33;;;7.32;;
47167;SDS011;32931;47.778;17.806;2023-04-06T00:19:21;14.30;;;7.20;;
47167;SDS011;32931;47.778;17.806;2023-04-06T00:21:47;14.55;;;7.28;;
47167;SDS011;32931;47.778;17.806;2023-04-06T00:24:13;17.80;;;7.80;;
47167;SDS011;32931;47.778;17.806;2023-04-06T00:26:40;13.88;;;7.55;;
47167;SDS011;32931;47.778;17.806;2023-04-06T00:29:06;15.85;;;7.47;;
47167;SDS011;32931;47.778;17.806;2023-04-06T00:31:32;16.33;;;7.75;;
47167;SDS011;32931;47.778;17.806;2023-04-06T00:33:58;13.50;;;7.53;;
47167;SDS011;32931;47.778;17.806;2023-04-06T00:36:24;12.82;;;7.63;;
47167;SDS011;32931;47.778;17.806;2023-04-06T00:38:51;15.95;;;7.60;;
47167;SDS011;32931;47.778;17.806;2023-04-06T00:41:17;14.90;;;7.68;;
47167;SDS011;32931;47.778;17.806;2023-04-06T00:43:43;16.63;;;8.10;;
47167;SDS011;32931;47.778;17.806;2023-04-06T00:46:10;14.32;;;8.07;;
47167;SDS011;32931;47.778;17.806;2023-04-06T00:48:36;16.85;;;8.57;;
47167;SDS011;32931;47.778;17.806;2023-04-06T00:51:02;18.05;;;8.27;;
47167;SDS011;32931;47.778;17.806;2023-04-06T00:53:28;17.88;;;8.07;;
47167;SDS011;32931;47.778;17.806;2023-04-06T00:55:55;15.55;;;7.95;;
47167;SDS011;32931;47.778;17.806;2023-04-06T00:58:21;17.92;;;8.73;;
47167;SDS011;32931;47.778;17.806;2023-04-06T01:00:47;18.90;;;8.68;;
47167;SDS011;32931;47.778;17.806;2023-04-06T01:03:13;17.92;;;8.48;;
47167;SDS011;32931;47.778;17.806;2023-04-06T01:05:40;16.92;;;8.13;;
47167;SDS011;32931;47.778;17.806;2023-04-06T01:08:06;18.65;;;8.45;;
47167;SDS011;32931;47.778;17.806;2023-04-06T01:10:33;19.52;;;8.27;;
47167;SDS011;32931;47.778;17.806;2023-04-06T01:12:59;19.48;;;8.70;;
47167;SDS011;32931;47.778;17.806;2023-04-06T01:15:25;14.18;;;8.40;;
47167;SDS011;32931;47.778;17.806;2023-04-06T01:17:52;18.42;;;8.25;;
47167;SDS011;32931;47.778;17.806;2023-04-06T01:20:18;18.50;;;8.07;;
47167;SDS011;32931;47.778;17.806;2023-04-06T01:22:44;21.23;;;8.95;;
47167;SDS011;32931;47.778;17.806;2023-04-06T01:25:10;16.75;;;8.55;;
47167;SDS011;32931;47.778;17.806;2023-04-06T01:27:37;22.55;;;8.65;;
47167;SDS011;32931;47.778;17.806;2023-04-06T01:30:03;17.50;;;8.27;;
47167;SDS011;32931;47.778;17.806;2023-04-06T01:32:30;19.98;;;8.57;;
47167;SDS011;32931;47.778;17.806;2023-04-06T01:34:56;15.75;;;8.35;;
47167;SDS011;32931;47.778;17.806;2023-04-06T01:37:22;24.00;;;9.45;;
47167;SDS011;32931;47.778;17.806;2023-04-06T01:39:48;19.30;;;8.27;;
47167;SDS011;32931;47.778;17.806;2023-04-06T01:42:15;22.13;;;9.05;;
47167;SDS011;32931;47.778;17.806;2023-04-06T01:44:41;19.40;;;8.85;;
47167;SDS011;32931;47.778;17.806;2023-04-06T01:47:07;18.70;;;8.32;;
47167;SDS011;32931;47.778;17.806;2023-04-06T01:49:34;21.48;;;8.60;;
47167;SDS011;32931;47.778;17.806;2023-04-06T01:52:00;23.25;;;9.07;;
47167;SDS011;32931;47.778;17.806;2023-04-06T01:54:26;15.90;;;8.32;;
47167;SDS011;32931;47.778;17.806;2023-04-06T01:56:52;18.50;;;8.98;;
47167;SDS011;32931;47.778;17.806;2023-04-06T01:59:18;16.77;;;8.98;;
47167;SDS011;32931;47.778;17.806;2023-04-06T02:01:44;16.80;;;8.85;;
47167;SDS011;32931;47.778;17.806;2023-04-06T02:04:11;15.23;;;8.18;;
47167;SDS011;32931;47.778;17.806;2023-04-06T02:06:39;17.67;;;8.80;;
47167;SDS011;32931;47.778;17.806;2023-04-06T02:09:05;19.38;;;9.02;;
47167;SDS011;32931;47.778;17.806;2023-04-06T02:11:31;19.88;;;9.35;;
47167;SDS011;32931;47.778;17.806;2023-04-06T02:13:57;19.83;;;9.57;;
47167;SDS011;32931;47.778;17.806;2023-04-06T02:16:25;17.85;;;9.07;;
47167;SDS011;32931;47.778;17.806;2023-04-06T02:18:51;17.80;;;9.35;;
47167;SDS011;32931;47.778;17.806;2023-04-06T02:21:18;16.05;;;8.90;;
47167;SDS011;32931;47.778;17.806;2023-04-06T02:23:46;22.15;;;9.05;;
47167;SDS011;32931;47.778;17.806;2023-04-06T02:26:13;21.08;;;9.68;;
47167;SDS011;32931;47.778;17.806;2023-04-06T02:28:40;19.50;;;10.48;;
47167;SDS011;32931;47.778;17.806;2023-04-06T02:31:07;19.73;;;10.02;;
47167;SDS011;32931;47.778;17.806;2023-04-06T02:33:33;25.27;;;10.65;;
47167;SDS011;32931;47.778;17.806;2023-04-06T02:36:00;21.65;;;11.18;;
47167;SDS011;32931;47.778;17.806;2023-04-06T02:38:26;23.85;;;11.52;;
47167;SDS011;32931;47.778;17.806;2023-04-06T02:40:52;24.92;;;10.80;;
47167;SDS011;32931;47.778;17.806;2023-04-06T02:43:18;21.80;;;10.35;;
47167;SDS011;32931;47.778;17.806;2023-04-06T02:45:45;28.05;;;11.15;;
47167;SDS011;32931;47.778;17.806;2023-04-06T02:48:11;28.17;;;11.25;;
47167;SDS011;32931;47.778;17.806;2023-04-06T02:50:37;22.65;;;11.65;;
47167;SDS011;32931;47.778;17.806;2023-04-06T02:53:03;21.60;;;10.60;;
47167;SDS011;32931;47.778;17.806;2023-04-06T02:55:29;23.58;;;11.60;;
47167;SDS011;32931;47.778;17.806;2023-04-06T02:57:55;23.52;;;11.40;;
47167;SDS011;32931;47.778;17.806;2023-04-06T03:00:22;29.77;;;12.18;;
47167;SDS011;32931;47.778;17.806;2023-04-06T03:02:48;22.20;;;11.50;;
47167;SDS011;32931;47.778;17.806;2023-04-06T03:05:14;23.10;;;11.32;;
47167;SDS011;32931;47.778;17.806;2023-04-06T03:07:40;26.83;;;11.20;;
47167;SDS011;32931;47.778;17.806;2023-04-06T03:10:06;22.58;;;11.05;;
47167;SDS011;32931;47.778;17.806;2023-04-06T03:12:33;22.40;;;11.50;;
47167;SDS011;32931;47.778;17.806;2023-04-06T03:14:59;21.77;;;11.13;;
47167;SDS011;32931;47.778;17.806;2023-04-06T03:17:25;20.55;;;10.63;;
47167;SDS011;32931;47.778;17.806;2023-04-06T03:19:51;24.05;;;10.80;;
47167;SDS011;32931;47.778;17.806;2023-04-06T03:22:17;21.77;;;10.93;;
47167;SDS011;32931;47.778;17.806;2023-04-06T03:24:45;24.77;;;11.52;;
47167;SDS011;32931;47.778;17.806;2023-04-06T03:27:11;18.52;;;10.18;;
47167;SDS011;32931;47.778;17.806;2023-04-06T03:29:37;21.08;;;10.85;;
47167;SDS011;32931;47.778;17.806;2023-04-06T03:32:03;25.38;;;10.77;;
47167;SDS011;32931;47.778;17.806;2023-04-06T03:34:30;21.25;;;10.55;;
47167;SDS011;32931;47.778;17.806;2023-04-06T03:36:56;25.25;;;10.40;;
47167;SDS011;32931;47.778;17.806;2023-04-06T03:39:22;22.02;;;11.20;;
47167;SDS011;32931;47.778;17.806;2023-04-06T03:41:48;22.08;;;10.57;;
47167;SDS011;32931;47.778;17.806;2023-04-06T03:44:14;23.58;;;11.05;;
47167;SDS011;32931;47.778;17.806;2023-04-06T03:46:42;23.05;;;11.43;;
47167;SDS011;32931;47.778;17.806;2023-04-06T03:49:08;21.02;;;10.77;;
47167;SDS011;32931;47.778;17.806;2023-04-06T03:51:34;18.67;;;10.32;;
47167;SDS011;32931;47.778;17.806;2023-04-06T03:54:00;32.13;;;10.93;;
47167;SDS011;32931;47.778;17.806;2023-04-06T03:56:26;20.73;;;10.45;;
47167;SDS011;32931;47.778;17.806;2023-04-06T03:58:52;22.83;;;10.65;;
47167;SDS011;32931;47.778;17.806;2023-04-06T04:01:19;22.33;;;10.70;;
47167;SDS011;32931;47.778;17.806;2023-04-06T04:03:45;21.63;;;10.23;;
47167;SDS011;32931;47.778;17.806;2023-04-06T04:06:11;22.30;;;10.93;;
47167;SDS011;32931;47.778;17.806;2023-04-06T04:08:37;22.75;;;11.77;;
47167;SDS011;32931;47.778;17.806;2023-04-06T04:11:04;21.92;;;10.82;;
47167;SDS011;32931;47.778;17.806;2023-04-06T04:13:30;19.60;;;11.07;;
47167;SDS011;32931;47.778;17.806;2023-04-06T04:15:56;21.63;;;10.35;;
47167;SDS011;32931;47.778;17.806;2023-04-06T04:18:23;21.05;;;10.65;;
47167;SDS011;32931;47.778;17.806;2023-04-06T04:20:50;23.58;;;10.55;;
47167;SDS011;32931;47.778;17.806;2023-04-06T04:23:16;21.70;;;11.18;;
47167;SDS011;32931;47.778;17.806;2023-04-06T04:25:43;20.15;;;11.30;;
47167;SDS011;32931;47.778;17.806;2023-04-06T04:28:09;20.90;;;10.75;;
47167;SDS011;32931;47.778;17.806;2023-04-06T04:30:35;30.33;;;11.70;;
47167;SDS011;32931;47.778;17.806;2023-04-06T04:33:01;21.65;;;11.57;;
47167;SDS011;32931;47.778;17.806;2023-04-06T04:35:27;23.58;;;11.70;;
47167;SDS011;32931;47.778;17.806;2023-04-06T04:37:53;26.02;;;11.50;;
47167;SDS011;32931;47.778;17.806;2023-04-06T04:40:20;27.60;;;12.65;;
47167;SDS011;32931;47.778;17.806;2023-04-06T04:42:46;25.98;;;13.13;;
47167;SDS011;32931;47.778;17.806;2023-04-06T04:45:12;27.08;;;12.35;;
47167;SDS011;32931;47.778;17.806;2023-04-06T04:47:38;29.45;;;12.27;;
47167;SDS011;32931;47.778;17.806;2023-04-06T04:50:05;25.25;;;12.10;;
47167;SDS011;32931;47.778;17.806;2023-04-06T04:52:31;23.70;;;12.52;;
47167;SDS011;32931;47.778;17.806;2023-04-06T04:54:57;25.73;;;12.27;;
47167;SDS011;32931;47.778;17.806;2023-04-06T04:57:23;27.38;;;12.85;;
47167;SDS011;32931;47.778;17.806;2023-04-06T04:59:50;27.10;;;12.85;;
47167;SDS011;32931;47.778;17.806;2023-04-06T05:02:16;26.27;;;12.75;;
47167;SDS011;32931;47.778;17.806;2023-04-06T05:04:42;27.60;;;12.63;;
47167;SDS011;32931;47.778;17.806;2023-04-06T05:07:09;28.42;;;12.85;;
47167;SDS011;32931;47.778;17.806;2023-04-06T05:09:35;24.85;;;12.38;;
47167;SDS011;32931;47.778;17.806;2023-04-06T05:12:01;27.38;;;13.45;;
47167;SDS011;32931;47.778;17.806;2023-04-06T05:14:28;27.42;;;13.52;;
47167;SDS011;32931;47.778;17.806;2023-04-06T05:16:54;25.77;;;12.63;;
47167;SDS011;32931;47.778;17.806;2023-04-06T05:19:20;25.75;;;12.57;;
47167;SDS011;32931;47.778;17.806;2023-04-06T05:21:47;26.00;;;13.32;;
47167;SDS011;32931;47.778;17.806;2023-04-06T05:24:13;26.75;;;13.10;;
47167;SDS011;32931;47.778;17.806;2023-04-06T05:26:39;22.83;;;12.48;;
47167;SDS011;32931;47.778;17.806;2023-04-06T05:29:05;25.27;;;13.32;;
47167;SDS011;32931;47.778;17.806;2023-04-06T05:31:32;26.98;;;13.48;;
47167;SDS011;32931;47.778;17.806;2023-04-06T05:33:58;24.63;;;13.32;;
47167;SDS011;32931;47.778;17.806;2023-04-06T05:36:25;26.10;;;14.02;;
47167;SDS011;32931;47.778;17.806;2023-04-06T05:38:51;32.50;;;13.65;;
47167;SDS011;32931;47.778;17.806;2023-04-06T05:41:18;31.38;;;13.18;;
47167;SDS011;32931;47.778;17.806;2023-04-06T05:43:44;25.60;;;13.25;;
47167;SDS011;32931;47.778;17.806;2023-04-06T05:46:10;26.88;;;13.73;;
47167;SDS011;32931;47.778;17.806;2023-04-06T05:48:36;26.33;;;14.02;;
47167;SDS011;32931;47.778;17.806;2023-04-06T05:51:03;31.42;;;13.77;;
47167;SDS011;32931;47.778;17.806;2023-04-06T05:53:31;33.10;;;14.45;;
47167;SDS011;32931;47.778;17.806;2023-04-06T05:56:01;29.70;;;13.80;;
47167;SDS011;32931;47.778;17.806;2023-04-06T05:58:28;21.85;;;11.77;;
47167;SDS011;32931;47.778;17.806;2023-04-06T06:00:58;24.08;;;13.27;;
47167;SDS011;32931;47.778;17.806;2023-04-06T06:03:25;27.75;;;13.40;;
47167;SDS011;32931;47.778;17.806;2023-04-06T06:05:51;27.60;;;12.82;;
47167;SDS011;32931;47.778;17.806;2023-04-06T06:08:18;28.50;;;13.05;;
47167;SDS011;32931;47.778;17.806;2023-04-06T06:10:44;23.02;;;13.13;;
47167;SDS011;32931;47.778;17.806;2023-04-06T06:13:10;31.75;;;14.02;;
47167;SDS011;32931;47.778;17.806;2023-04-06T06:15:36;22.67;;;13.32;;
47167;SDS011;32931;47.778;17.806;2023-04-06T06:18:02;22.30;;;12.02;;
47167;SDS011;32931;47.778;17.806;2023-04-06T06:20:29;23.60;;;11.93;;
47167;SDS011;32931;47.778;17.806;2023-04-06T06:22:55;24.65;;;12.27;;
47167;SDS011;32931;47.778;17.806;2023-04-06T06:25:21;21.35;;;11.60;;
47167;SDS011;32931;47.778;17.806;2023-04-06T06:27:47;28.10;;;12.52;;
47167;SDS011;32931;47.778;17.806;2023-04-06T06:30:13;25.45;;;13.02;;
47167;SDS011;32931;47.778;17.806;2023-04-06T06:32:40;28.05;;;13.90;;
47167;SDS011;32931;47.778;17.806;2023-04-06T06:35:06;24.55;;;12.45;;
47167;SDS011;32931;47.778;17.806;2023-04-06T06:37:33;26.92;;;13.27;;
47167;SDS011;32931;47.778;17.806;2023-04-06T06:39:59;27.80;;;12.48;;
47167;SDS011;32931;47.778;17.806;2023-04-06T06:42:25;26.75;;;12.85;;
47167;SDS011;32931;47.778;17.806;2023-04-06T06:44:51;26.50;;;13.07;;
47167;SDS011;32931;47.778;17.806;2023-04-06T06:47:18;21.83;;;12.00;;
47167;SDS011;32931;47.778;17.806;2023-04-06T06:49:44;28.25;;;12.52;;
47167;SDS011;32931;47.778;17.806;2023-04-06T06:52:10;24.70;;;12.23;;
47167;SDS011;32931;47.778;17.806;2023-04-06T06:54:36;26.15;;;11.32;;
47167;SDS011;32931;47.778;17.806;2023-04-06T06:57:02;29.75;;;12.20;;
47167;SDS011;32931;47.778;17.806;2023-04-06T06:59:28;25.98;;;11.13;;
47167;SDS011;32931;47.778;17.806;2023-04-06T07:01:54;25.83;;;11.60;;
47167;SDS011;32931;47.778;17.806;2023-04-06T07:04:21;24.48;;;11.57;;
47167;SDS011;32931;47.778;17.806;2023-04-06T07:06:47;23.08;;;11.18;;
47167;SDS011;32931;47.778;17.806;2023-04-06T07:09:13;22.92;;;10.90;;
47167;SDS011;32931;47.778;17.806;2023-04-06T07:11:39;21.02;;;11.13;;
47167;SDS011;32931;47.778;17.806;2023-04-06T07:14:05;27.23;;;11.68;;
47167;SDS011;32931;47.778;17.806;2023-04-06T07:16:31;24.02;;;11.05;;
47167;SDS011;32931;47.778;17.806;2023-04-06T07:18:58;24.92;;;11.63;;
47167;SDS011;32931;47.778;17.806;2023-04-06T07:21:24;27.35;;;10.68;;
47167;SDS011;32931;47.778;17.806;2023-04-06T07:23:50;32.65;;;11.65;;
47167;SDS011;32931;47.778;17.806;2023-04-06T07:26:16;22.88;;;9.65;;
47167;SDS011;32931;47.778;17.806;2023-04-06T07:28:43;23.02;;;10.10;;
47167;SDS011;32931;47.778;17.806;2023-04-06T07:31:09;24.92;;;10.70;;
47167;SDS011;32931;47.778;17.806;2023-04-06T07:33:35;18.50;;;9.20;;
47167;SDS011;32931;47.778;17.806;2023-04-06T07:36:01;18.73;;;9.25;;
47167;SDS011;32931;47.778;17.806;2023-04-06T07:38:27;20.45;;;9.80;;
47167;SDS011;32931;47.778;17.806;2023-04-06T07:40:53;22.65;;;9.40;;
47167;SDS011;32931;47.778;17.806;2023-04-06T07:43:19;18.95;;;9.52;;
47167;SDS011;32931;47.778;17.806;2023-04-06T07:45:46;22.25;;;9.70;;
47167;SDS011;32931;47.778;17.806;2023-04-06T07:48:12;26.55;;;9.77;;
47167;SDS011;32931;47.778;17.806;2023-04-06T07:50:38;19.80;;;9.60;;
47167;SDS011;32931;47.778;17.806;2023-04-06T07:53:04;24.65;;;9.80;;
47167;SDS011;32931;47.778;17.806;2023-04-06T07:55:30;18.83;;;9.55;;
47167;SDS011;32931;47.778;17.806;2023-04-06T07:57:56;21.23;;;9.02;;
47167;SDS011;32931;47.778;17.806;2023-04-06T08:00:23;20.60;;;8.65;;
47167;SDS011;32931;47.778;17.806;2023-04-06T08:02:49;26.40;;;8.98;;
47167;SDS011;32931;47.778;17.806;2023-04-06T08:05:15;32.95;;;8.90;;
47167;SDS011;32931;47.778;17.806;2023-04-06T08:07:43;14.65;;;8.15;;
47167;SDS011;32931;47.778;17.806;2023-04-06T08:10:09;24.95;;;8.23;;
47167;SDS011;32931;47.778;17.806;2023-04-06T08:12:35;26.13;;;8.75;;
47167;SDS011;32931;47.778;17.806;2023-04-06T08:15:02;16.08;;;8.27;;
47167;SDS011;32931;47.778;17.806;2023-04-06T08:17:29;22.20;;;8.02;;
47167;SDS011;32931;47.778;17.806;2023-04-06T08:19:56;21.25;;;8.48;;
47167;SDS011;32931;47.778;17.806;2023-04-06T08:22:23;19.27;;;8.68;;
47167;SDS011;32931;47.778;17.806;2023-04-06T08:24:49;14.25;;;7.90;;
47167;SDS011;32931;47.778;17.806;2023-04-06T08:27:16;19.33;;;8.10;;
47167;SDS011;32931;47.778;17.806;2023-04-06T08:29:42;18.40;;;8.60;;
47167;SDS011;32931;47.778;17.806;2023-04-06T08:32:08;14.23;;;7.65;;
47167;SDS011;32931;47.778;17.806;2023-04-06T08:34:34;16.88;;;7.85;;
47167;SDS011;32931;47.778;17.806;2023-04-06T08:37:01;18.50;;;8.45;;
47167;SDS011;32931;47.778;17.806;2023-04-06T08:39:27;19.02;;;8.15;;
47167;SDS011;32931;47.778;17.806;2023-04-06T08:41:56;17.02;;;8.23;;
47167;SDS011;32931;47.778;17.806;2023-04-06T08:44:23;24.65;;;7.78;;
47167;SDS011;32931;47.778;17.806;2023-04-06T08:46:49;18.27;;;7.90;;
47167;SDS011;32931;47.778;17.806;2023-04-06T08:49:16;16.33;;;7.88;;
47167;SDS011;32931;47.778;17.806;2023-04-06T08:51:43;18.63;;;7.80;;
47167;SDS011;32931;47.778;17.806;2023-04-06T08:54:09;22.98;;;8.32;;
47167;SDS011;32931;47.778;17.806;2023-04-06T08:56:38;14.73;;;7.78;;
47167;SDS011;32931;47.778;17.806;2023-04-06T08:59:06;15.50;;;8.20;;
47167;SDS011;32931;47.778;17.806;2023-04-06T09:01:33;19.80;;;8.55;;
47167;SDS011;32931;47.778;17.806;2023-04-06T09:04:03;20.00;;;8.40;;
47167;SDS011;32931;47.778;17.806;2023-04-06T09:06:34;20.80;;;7.88;;
47167;SDS011;32931;47.778;17.806;2023-04-06T09:09:02;15.35;;;7.82;;
47167;SDS011;32931;47.778;17.806;2023-04-06T09:11:29;34.17;;;8.60;;
47167;SDS011;32931;47.778;17.806;2023-04-06T09:14:06;18.42;;;8.05;;
47167;SDS011;32931;47.778;17.806;2023-04-06T09:16:38;17.85;;;7.93;;
47167;SDS011;32931;47.778;17.806;2023-04-06T09:19:09;19.23;;;8.65;;
47167;SDS011;32931;47.778;17.806;2023-04-06T09:21:35;23.45;;;8.23;;
47167;SDS011;32931;47.778;17.806;2023-04-06T09:24:02;34.53;;;8.60;;
47167;SDS011;32931;47.778;17.806;2023-04-06T09:26:29;21.20;;;8.25;;
47167;SDS011;32931;47.778;17.806;2023-04-06T09:28:57;16.90;;;7.97;;
47167;SDS011;32931;47.778;17.806;2023-04-06T09:31:25;20.42;;;8.00;;
47167;SDS011;32931;47.778;17.806;2023-04-06T09:36:31;21.38;;;8.30;;
47167;SDS011;32931;47.778;17.806;2023-04-06T09:39:00;19.45;;;8.60;;
47167;SDS011;32931;47.778;17.806;2023-04-06T09:41:34;14.75;;;8.70;;
47167;SDS011;32931;47.778;17.806;2023-04-06T09:44:04;22.30;;;9.52;;
47167;SDS011;32931;47.778;17.806;2023-04-06T09:46:33;16.33;;;8.20;;
47167;SDS011;32931;47.778;17.806;2023-04-06T09:49:04;14.57;;;8.15;;
47167;SDS011;32931;47.778;17.806;2023-04-06T09:51:32;14.90;;;8.75;;
47167;SDS011;32931;47.778;17.806;2023-04-06T09:54:03;24.02;;;9.70;;
47167;SDS011;32931;47.778;17.806;2023-04-06T09:56:33;21.13;;;8.05;;
47167;SDS011;32931;47.778;17.806;2023-04-06T09:59:11;15.52;;;7.82;;
47167;SDS011;32931;47.778;17.806;2023-04-06T10:01:39;24.27;;;7.82;;
47167;SDS011;32931;47.778;17.806;2023-04-06T10:07:02;14.65;;;7.18;;
47167;SDS011;32931;47.778;17.806;2023-04-06T10:09:30;15.75;;;6.15;;
47167;SDS011;32931;47.778;17.806;2023-04-06T10:12:02;12.18;;;7.07;;
47167;SDS011;32931;47.778;17.806;2023-04-06T10:14:31;30.55;;;7.95;;
47167;SDS011;32931;47.778;17.806;2023-04-06T10:17:01;16.52;;;6.90;;
47167;SDS011;32931;47.778;17.806;2023-04-06T10:19:40;14.63;;;7.55;;
47167;SDS011;32931;47.778;17.806;2023-04-06T10:22:18;16.85;;;6.93;;
47167;SDS011;32931;47.778;17.806;2023-04-06T10:24:49;18.92;;;6.80;;
47167;SDS011;32931;47.778;17.806;2023-04-06T10:27:15;14.00;;;7.00;;
47167;SDS011;32931;47.778;17.806;2023-04-06T10:29:52;14.48;;;5.88;;
47167;SDS011;32931;47.778;17.806;2023-04-06T10:32:18;11.05;;;6.32;;
47167;SDS011;32931;47.778;17.806;2023-04-06T10:34:44;17.15;;;7.45;;
47167;SDS011;32931;47.778;17.806;2023-04-06T10:37:12;15.20;;;6.55;;
47167;SDS011;32931;47.778;17.806;2023-04-06T10:39:53;18.33;;;7.07;;
47167;SDS011;32931;47.778;17.806;2023-04-06T10:42:24;13.48;;;6.90;;
47167;SDS011;32931;47.778;17.806;2023-04-06T10:44:51;18.10;;;6.88;;
47167;SDS011;32931;47.778;17.806;2023-04-06T10:47:17;18.35;;;6.75;;
47167;SDS011;32931;47.778;17.806;2023-04-06T10:49:44;13.70;;;6.57;;
47167;SDS011;32931;47.778;17.806;2023-04-06T10:52:10;11.20;;;6.38;;
47167;SDS011;32931;47.778;17.806;2023-04-06T10:54:40;12.80;;;6.40;;
47167;SDS011;32931;47.778;17.806;2023-04-06T10:57:09;17.63;;;6.55;;
47167;SDS011;32931;47.778;17.806;2023-04-06T10:59:35;17.65;;;6.57;;
47167;SDS011;32931;47.778;17.806;2023-04-06T11:02:01;13.63;;;6.72;;
47167;SDS011;32931;47.778;17.806;2023-04-06T11:04:28;14.45;;;7.30;;
47167;SDS011;32931;47.778;17.806;2023-04-06T11:06:54;16.75;;;6.60;;
47167;SDS011;32931;47.778;17.806;2023-04-06T11:09:27;16.10;;;6.07;;
47167;SDS011;32931;47.778;17.806;2023-04-06T11:11:54;16.50;;;6.38;;
47167;SDS011;32931;47.778;17.806;2023-04-06T11:14:21;16.58;;;5.72;;
47167;SDS011;32931;47.778;17.806;2023-04-06T11:16:48;18.13;;;6.05;;
47167;SDS011;32931;47.778;17.806;2023-04-06T11:19:17;12.95;;;5.28;;
47167;SDS011;32931;47.778;17.806;2023-04-06T11:21:44;23.05;;;6.03;;
47167;SDS011;32931;47.778;17.806;2023-04-06T11:24:23;17.92;;;6.63;;
47167;SDS011;32931;47.778;17.806;2023-04-06T11:26:51;74.82;;;7.32;;
47167;SDS011;32931;47.778;17.806;2023-04-06T11:29:18;13.65;;;5.70;;
47167;SDS011;32931;47.778;17.806;2023-04-06T11:31:50;21.13;;;5.47;;
47167;SDS011;32931;47.778;17.806;2023-04-06T11:34:20;20.45;;;5.38;;
47167;SDS011;32931;47.778;17.806;2023-04-06T11:36:48;12.63;;;5.90;;
47167;SDS011;32931;47.778;17.806;2023-04-06T11:39:20;17.23;;;6.03;;
47167;SDS011;32931;47.778;17.806;2023-04-06T11:41:57;18.92;;;6.07;;
47167;SDS011;32931;47.778;17.806;2023-04-06T11:47:01;16.05;;;6.53;;
47167;SDS011;32931;47.778;17.806;2023-04-06T11:49:28;15.18;;;6.55;;
47167;SDS011;32931;47.778;17.806;2023-04-06T11:51:56;10.43;;;6.00;;
47167;SDS011;32931;47.778;17.806;2023-04-06T11:54:32;14.90;;;5.85;;
47167;SDS011;32931;47.778;17.806;2023-04-06T11:57:03;66.88;;;7.57;;
47167;SDS011;32931;47.778;17.806;2023-04-06T11:59:33;19.35;;;6.68;;
47167;SDS011;32931;47.778;17.806;2023-04-06T12:02:03;19.00;;;6.70;;
47167;SDS011;32931;47.778;17.806;2023-04-06T12:04:30;64.68;;;6.82;;
47167;SDS011;32931;47.778;17.806;2023-04-06T12:06:56;20.23;;;6.40;;
47167;SDS011;32931;47.778;17.806;2023-04-06T12:09:22;24.20;;;6.53;;
47167;SDS011;32931;47.778;17.806;2023-04-06T12:11:49;29.05;;;6.85;;
47167;SDS011;32931;47.778;17.806;2023-04-06T12:14:15;110.10;;;8.88;;
47167;SDS011;32931;47.778;17.806;2023-04-06T12:16:42;95.00;;;8.23;;
47167;SDS011;32931;47.778;17.806;2023-04-06T12:19:08;13.80;;;6.13;;
47167;SDS011;32931;47.778;17.806;2023-04-06T12:21:34;63.78;;;6.95;;
47167;SDS011;32931;47.778;17.806;2023-04-06T12:24:03;31.70;;;6.43;;
47167;SDS011;32931;47.778;17.806;2023-04-06T12:26:30;81.20;;;8.15;;
47167;SDS011;32931;47.778;17.806;2023-04-06T12:28:56;32.28;;;5.70;;
47167;SDS011;32931;47.778;17.806;2023-04-06T12:31:30;16.90;;;5.07;;
47167;SDS011;32931;47.778;17.806;2023-04-06T12:33:56;20.60;;;5.97;;
47167;SDS011;32931;47.778;17.806;2023-04-06T12:36:22;24.42;;;5.72;;
47167;SDS011;32931;47.778;17.806;2023-04-06T12:38:48;15.57;;;5.72;;
47167;SDS011;32931;47.778;17.806;2023-04-06T12:41:16;38.10;;;5.95;;
47167;SDS011;32931;47.778;17.806;2023-04-06T12:43:43;10.75;;;5.38;;
47167;SDS011;32931;47.778;17.806;2023-04-06T12:46:10;17.40;;;5.78;;
47167;SDS011;32931;47.778;17.806;2023-04-06T12:48:36;9.70;;;5.18;;
47167;SDS011;32931;47.778;17.806;2023-04-06T12:51:06;13.63;;;5.55;;
47167;SDS011;32931;47.778;17.806;2023-04-06T12:53:32;15.77;;;5.45;;
47167;SDS011;32931;47.778;17.806;2023-04-06T12:56:00;13.98;;;5.63;;
47167;SDS011;32931;47.778;17.806;2023-04-06T12:58:27;32.88;;;5.43;;
47167;SDS011;32931;47.778;17.806;2023-04-06T13:00:53;20.08;;;6.18;;
47167;SDS011;32931;47.778;17.806;2023-04-06T13:03:21;20.90;;;6.65;;
47167;SDS011;32931;47.778;17.806;2023-04-06T13:05:48;27.73;;;6.53;;
47167;SDS011;32931;47.778;17.806;2023-04-06T13:08:16;18.58;;;5.88;;
47167;SDS011;32931;47.778;17.806;2023-04-06T13:10:47;12.65;;;6.10;;
47167;SDS011;32931;47.778;17.806;2023-04-06T13:13:14;15.52;;;6.65;;
47167;SDS011;32931;47.778;17.806;2023-04-06T13:15:41;12.20;;;6.30;;
47167;SDS011;32931;47.778;17.806;2023-04-06T13:18:07;12.43;;;6.03;;
47167;SDS011;32931;47.778;17.806;2023-04-06T13:20:34;18.98;;;6.20;;
47167;SDS011;32931;47.778;17.806;2023-04-06T13:23:01;12.88;;;6.30;;
47167;SDS011;32931;47.778;17.806;2023-04-06T13:25:27;11.65;;;5.60;;
47167;SDS011;32931;47.778;17.806;2023-04-06T13:27:58;23.73;;;5.30;;
47167;SDS011;32931;47.778;17.806;2023-04-06T13:30:24;12.70;;;5.82;;
47167;SDS011;32931;47.778;17.806;2023-04-06T13:32:51;15.38;;;5.88;;
47167;SDS011;32931;47.778;17.806;2023-04-06T13:35:17;19.65;;;6.70;;
47167;SDS011;32931;47.778;17.806;2023-04-06T13:37:43;13.55;;;6.32;;
47167;SDS011;32931;47.778;17.806;2023-04-06T13:40:10;20.17;;;6.80;;
47167;SDS011;32931;47.778;17.806;2023-04-06T13:42:36;26.02;;;7.60;;
47167;SDS011;32931;47.778;17.806;2023-04-06T13:45:05;16.52;;;8.57;;
47167;SDS011;32931;47.778;17.806;2023-04-06T13:47:32;14.07;;;7.88;;
47167;SDS011;32931;47.778;17.806;2023-04-06T13:49:58;22.33;;;9.13;;
47167;SDS011;32931;47.778;17.806;2023-04-06T13:52:25;45.97;;;8.10;;
47167;SDS011;32931;47.778;17.806;2023-04-06T13:54:52;19.52;;;7.93;;
47167;SDS011;32931;47.778;17.806;2023-04-06T13:57:18;21.55;;;8.73;;
47167;SDS011;32931;47.778;17.806;2023-04-06T13:59:44;16.52;;;8.68;;
47167;SDS011;32931;47.778;17.806;2023-04-06T14:02:10;27.90;;;8.60;;
47167;SDS011;32931;47.778;17.806;2023-04-06T14:04:37;33.85;;;8.23;;
47167;SDS011;32931;47.778;17.806;2023-04-06T14:07:03;16.65;;;7.18;;
47167;SDS011;32931;47.778;17.806;2023-04-06T14:09:32;21.40;;;8.25;;
47167;SDS011;32931;47.778;17.806;2023-04-06T14:11:59;17.23;;;8.30;;
47167;SDS011;32931;47.778;17.806;2023-04-06T14:14:25;20.65;;;8.50;;
47167;SDS011;32931;47.778;17.806;2023-04-06T14:16:51;19.52;;;8.82;;
47167;SDS011;32931;47.778;17.806;2023-04-06T14:19:18;16.80;;;8.38;;
47167;SDS011;32931;47.778;17.806;2023-04-06T14:21:44;17.65;;;8.65;;
47167;SDS011;32931;47.778;17.806;2023-04-06T14:24:11;15.23;;;7.70;;